Time;durP1;ratioP1;P1;durP2;ratioP2;P2;SDS_P1;SDS_P2;PMS_P1;PMS_P2;Temp;Humidity;BMP_temperature;BMP_pressure;BME280_temperature;BME280_humidity;BME280_pressure;Samples;Min_cycle;Max_cycle;Signal;HPM_P1;HPM_P2
2022/07/08 00:01:59;;;;;;;0.93;0.93;;;15.50;99.90;;;;;;5035722;28;20324;-83
2022/07/08 00:04:25;;;;;;;1.17;0.20;;;15.30;99.90;;;;;;5038135;28;20188;-83
2022/07/08 00:06:51;;;;;;;0.20;0.20;;;15.40;99.90;;;;;;5037957;28;20547;-82
2022/07/08 00:09:17;;;;;;;0.20;0.20;;;15.50;99.90;;;;;;5038119;28;20186;-83
2022/07/08 00:11:43;;;;;;;0.43;0.17;;;15.60;99.90;;;;;;5038720;28;20263;-83
2022/07/08 00:14:09;;;;;;;0.10;0.10;;;15.60;99.90;;;;;;5038350;28;20192;-83
2022/07/08 00:16:39;;;;;;;0.53;0.53;;;15.60;99.90;;;;;;5034856;28;20187;-83
2022/07/08 00:19:06;;;;;;;0.30;0.30;;;15.80;99.90;;;;;;5039738;28;20202;-83
2022/07/08 00:21:32;;;;;;;0.87;0.50;;;15.80;99.90;;;;;;5037329;28;20957;-83
2022/07/08 00:23:57;;;;;;;0.20;0.20;;;15.70;99.90;;;;;;5037441;28;20187;-83
2022/07/08 00:26:23;;;;;;;0.30;0.30;;;15.70;99.90;;;;;;5037621;28;20186;-82
2022/07/08 00:28:48;;;;;;;1.20;0.43;;;15.60;99.90;;;;;;5035218;28;20190;-83
2022/07/08 00:31:14;;;;;;;0.93;0.20;;;15.50;99.90;;;;;;5034953;28;20715;-82
2022/07/08 00:33:39;;;;;;;0.17;0.17;;;15.60;99.90;;;;;;5034201;28;20218;-82
2022/07/08 00:36:05;;;;;;;0.20;0.20;;;15.70;99.90;;;;;;5035323;28;20196;-83
2022/07/08 00:38:30;;;;;;;0.10;0.10;;;15.80;99.90;;;;;;5035665;28;20242;-82
2022/07/08 00:40:56;;;;;;;3.37;0.60;;;15.90;99.90;;;;;;5035930;28;20663;-83
2022/07/08 00:43:40;;;;;;;0.20;0.20;;;15.90;99.90;;;;;;5035748;28;20174;-82
2022/07/08 00:46:07;;;;;;;0.20;0.20;;;15.90;99.90;;;;;;5034936;28;20185;-82
2022/07/08 00:48:33;;;;;;;0.30;0.30;;;15.80;99.90;;;;;;5035435;28;20178;-83
2022/07/08 00:51:00;;;;;;;0.20;0.20;;;15.80;99.90;;;;;;5035832;28;20212;-83
2022/07/08 00:53:29;;;;;;;0.30;0.30;;;15.80;99.90;;;;;;5035448;28;20190;-83
2022/07/08 00:55:55;;;;;;;3.20;1.37;;;15.70;99.90;;;;;;5035293;28;20197;-83
2022/07/08 00:58:21;;;;;;;0.40;0.40;;;15.70;99.90;;;;;;5036809;28;20359;-83
2022/07/08 01:00:47;;;;;;;0.30;0.30;;;15.60;99.90;;;;;;5056883;28;20212;-83
2022/07/08 01:03:13;;;;;;;0.23;0.23;;;15.50;99.90;;;;;;5034693;28;21211;-83
2022/07/08 01:05:38;;;;;;;0.37;0.20;;;15.50;99.90;;;;;;5039019;28;20204;-83
2022/07/08 01:08:04;;;;;;;0.53;0.53;;;15.50;99.90;;;;;;5037087;28;20209;-83
2022/07/08 01:10:31;;;;;;;0.13;0.13;;;15.40;99.90;;;;;;5037308;28;20205;-83
2022/07/08 01:12:57;;;;;;;0.47;0.40;;;15.40;99.90;;;;;;5037341;28;20202;-83
2022/07/08 01:15:23;;;;;;;1.03;0.27;;;15.40;99.90;;;;;;5035537;28;20192;-82
2022/07/08 01:17:49;;;;;;;0.20;0.20;;;15.30;99.90;;;;;;5035340;28;20968;-83
2022/07/08 01:20:15;;;;;;;0.50;0.50;;;15.30;99.90;;;;;;5036404;28;20216;-82
2022/07/08 01:22:41;;;;;;;0.20;0.20;;;15.30;99.90;;;;;;5035451;28;20224;-82
2022/07/08 01:25:07;;;;;;;0.10;0.10;;;15.20;99.90;;;;;;5037673;28;20224;-83
2022/07/08 01:27:33;;;;;;;0.10;0.10;;;15.10;99.90;;;;;;5034164;28;20200;-83
2022/07/08 01:29:59;;;;;;;0.17;0.17;;;14.90;99.90;;;;;;5038574;28;20208;-83
2022/07/08 01:32:33;;;;;;;0.10;0.10;;;15.00;99.90;;;;;;5038976;28;20186;-83
2022/07/08 01:34:59;;;;;;;0.10;0.10;;;14.80;99.90;;;;;;5040284;28;20270;-83
2022/07/08 01:37:24;;;;;;;0.23;0.20;;;14.90;99.90;;;;;;5039104;28;20292;-83
2022/07/08 01:39:50;;;;;;;1.07;0.93;;;14.80;99.90;;;;;;5041058;28;20194;-83
2022/07/08 01:42:15;;;;;;;0.23;0.23;;;14.60;99.90;;;;;;5039094;28;20196;-82
2022/07/08 01:44:41;;;;;;;0.10;0.10;;;14.40;99.90;;;;;;5041312;28;20290;-83
2022/07/08 01:47:07;;;;;;;1.60;0.73;;;14.50;99.90;;;;;;5039228;28;20192;-82
2022/07/08 01:49:32;;;;;;;0.10;0.10;;;14.50;99.90;;;;;;5038388;28;20185;-83
2022/07/08 01:51:59;;;;;;;0.10;0.10;;;14.60;99.90;;;;;;5038136;28;20201;-83
2022/07/08 01:54:24;;;;;;;0.20;0.20;;;14.60;99.90;;;;;;5040463;28;20257;-83
2022/07/08 01:56:50;;;;;;;0.80;0.50;;;14.50;99.90;;;;;;5038917;28;20207;-82
2022/07/08 01:59:15;;;;;;;0.20;0.20;;;14.60;99.90;;;;;;5038725;28;20216;-82
2022/07/08 02:01:41;;;;;;;0.77;0.50;;;14.60;99.90;;;;;;5040458;28;20230;-83
2022/07/08 02:04:07;;;;;;;0.20;0.20;;;14.60;99.90;;;;;;5044454;28;20786;-82
2022/07/08 02:06:33;;;;;;;0.20;0.20;;;14.60;99.90;;;;;;5039686;28;20256;-82
2022/07/08 02:08:58;;;;;;;0.30;0.20;;;14.60;99.90;;;;;;5040614;28;20203;-82
2022/07/08 02:14:08;;;;;;;0.10;0.10;;;14.70;99.90;;;;;;5042431;28;20196;-83
2022/07/08 02:16:33;;;;;;;3.40;0.20;;;14.70;99.90;;;;;;5039960;28;20277;-82
2022/07/08 02:18:59;;;;;;;1.17;0.23;;;14.70;99.90;;;;;;5041178;28;20274;-83
2022/07/08 02:21:24;;;;;;;0.10;0.10;;;14.80;99.90;;;;;;5042107;28;20205;-82
2022/07/08 02:23:50;;;;;;;2.10;0.53;;;14.80;99.90;;;;;;5039457;28;20193;-82
2022/07/08 02:26:16;;;;;;;0.20;0.20;;;14.80;99.90;;;;;;5040277;28;20174;-82
2022/07/08 02:28:41;;;;;;;0.10;0.10;;;14.80;99.90;;;;;;5039324;28;20189;-83
2022/07/08 02:31:07;;;;;;;0.20;0.20;;;14.90;99.90;;;;;;5040290;28;20242;-83
2022/07/08 02:33:32;;;;;;;2.23;0.40;;;14.60;99.90;;;;;;5041135;28;20183;-83
2022/07/08 02:35:58;;;;;;;0.33;0.30;;;14.40;99.90;;;;;;5040747;28;20198;-83
2022/07/08 02:38:25;;;;;;;0.10;0.10;;;14.40;99.90;;;;;;5041684;28;20207;-83
2022/07/08 02:40:51;;;;;;;0.10;0.10;;;14.40;99.90;;;;;;5039654;28;20613;-83
2022/07/08 02:43:16;;;;;;;0.10;0.10;;;14.50;99.90;;;;;;5040593;28;20187;-83
2022/07/08 02:45:42;;;;;;;0.20;0.20;;;14.40;99.90;;;;;;5046457;28;20195;-82
2022/07/08 02:48:08;;;;;;;0.10;0.10;;;14.30;99.90;;;;;;5040654;28;20217;-83
2022/07/08 02:50:34;;;;;;;0.23;0.23;;;14.40;99.90;;;;;;5042383;28;20295;-83
2022/07/08 02:53:00;;;;;;;0.17;0.17;;;14.40;99.90;;;;;;5039010;28;20284;-83
2022/07/08 02:55:25;;;;;;;0.20;0.20;;;14.50;99.90;;;;;;5040939;28;21228;-83
2022/07/08 02:57:51;;;;;;;0.10;0.10;;;14.60;99.90;;;;;;5060031;28;20679;-83
2022/07/08 03:00:17;;;;;;;0.10;0.10;;;14.50;99.90;;;;;;5040193;28;20682;-83
2022/07/08 03:02:42;;;;;;;0.30;0.30;;;14.50;99.90;;;;;;5040260;28;20210;-81
2022/07/08 03:05:08;;;;;;;0.30;0.30;;;14.40;99.90;;;;;;5037226;28;20193;-83
2022/07/08 03:07:34;;;;;;;0.10;0.10;;;14.40;99.90;;;;;;5039763;28;20216;-82
2022/07/08 03:09:59;;;;;;;0.10;0.10;;;14.40;99.90;;;;;;5039898;28;20202;-83
2022/07/08 03:12:26;;;;;;;0.30;0.20;;;14.40;99.90;;;;;;5038439;28;20196;-83
2022/07/08 03:14:51;;;;;;;0.17;0.17;;;14.40;99.90;;;;;;5038385;28;20708;-83
2022/07/08 03:17:17;;;;;;;0.20;0.20;;;14.40;99.90;;;;;;5038814;28;20196;-83
2022/07/08 03:19:42;;;;;;;0.40;0.33;;;14.30;99.90;;;;;;5039977;28;20216;-83
2022/07/08 03:22:08;;;;;;;0.10;0.10;;;14.30;99.90;;;;;;5045046;28;20302;-82
2022/07/08 03:24:33;;;;;;;0.30;0.30;;;14.30;99.90;;;;;;5040461;28;20205;-82
2022/07/08 03:26:59;;;;;;;0.10;0.10;;;14.30;99.90;;;;;;5036560;28;20274;-83
2022/07/08 03:29:25;;;;;;;0.17;0.17;;;14.30;99.90;;;;;;5039519;28;20200;-83
2022/07/08 03:31:50;;;;;;;0.10;0.10;;;14.30;99.90;;;;;;5038307;28;20236;-83
2022/07/08 03:34:16;;;;;;;0.10;0.10;;;14.30;99.90;;;;;;5038352;28;20188;-83
2022/07/08 03:36:41;;;;;;;0.10;0.10;;;14.20;99.90;;;;;;5039197;28;20239;-82
2022/07/08 03:39:07;;;;;;;0.43;0.43;;;14.30;99.90;;;;;;5035879;28;20568;-83
2022/07/08 03:41:33;;;;;;;0.10;0.10;;;14.20;99.90;;;;;;5037619;28;20259;-83
2022/07/08 03:44:00;;;;;;;0.10;0.10;;;14.30;99.90;;;;;;5043642;28;20200;-83
2022/07/08 03:46:25;;;;;;;0.30;0.20;;;14.30;99.90;;;;;;5036974;28;20198;-83
2022/07/08 03:48:51;;;;;;;0.20;0.20;;;14.40;99.90;;;;;;5036816;28;20186;-82
2022/07/08 03:51:16;;;;;;;0.10;0.10;;;14.40;99.90;;;;;;5035987;28;20214;-83
2022/07/08 03:53:43;;;;;;;0.20;0.20;;;14.40;99.90;;;;;;5036814;28;20181;-82
2022/07/08 03:56:08;;;;;;;0.10;0.10;;;14.10;99.90;;;;;;5059010;28;20200;-83
2022/07/08 03:58:35;;;;;;;0.10;0.10;;;13.90;99.90;;;;;;5038431;28;20213;-82
2022/07/08 04:01:01;;;;;;;1.80;0.33;;;13.70;99.90;;;;;;5037513;28;20229;-82
2022/07/08 04:03:27;;;;;;;0.20;0.20;;;14.40;99.90;;;;;;5036942;28;20180;-83
2022/07/08 04:05:52;;;;;;;0.20;0.20;;;15.70;99.90;;;;;;5035904;28;20209;-82
2022/07/08 04:08:18;;;;;;;0.10;0.10;;;16.50;99.90;;;;;;5036125;28;21016;-82
2022/07/08 04:10:44;;;;;;;0.87;0.70;;;17.50;99.90;;;;;;5037435;28;20204;-83
2022/07/08 04:13:10;;;;;;;0.30;0.30;;;18.70;99.90;;;;;;5036874;28;20654;-83
2022/07/08 04:15:35;;;;;;;0.23;0.23;;;19.80;99.90;;;;;;5036668;28;20243;-83
2022/07/08 04:18:01;;;;;;;0.27;0.27;;;20.20;99.90;;;;;;5037982;28;20762;-83
2022/07/08 04:20:26;;;;;;;0.40;0.40;;;20.10;99.90;;;;;;5037177;28;20656;-82
2022/07/08 04:22:52;;;;;;;0.37;0.37;;;19.80;99.90;;;;;;5042835;28;20185;-83
2022/07/08 04:25:17;;;;;;;0.50;0.50;;;19.70;99.90;;;;;;5036466;28;20938;-83
2022/07/08 04:27:43;;;;;;;1.07;0.70;;;20.20;99.90;;;;;;5036507;28;20587;-82
2022/07/08 04:30:09;;;;;;;0.20;0.20;;;19.30;99.90;;;;;;5038099;28;20212;-83
2022/07/08 04:32:34;;;;;;;2.00;0.33;;;18.70;99.90;;;;;;5036909;28;20188;-83
2022/07/08 04:35:00;;;;;;;0.10;0.10;;;18.80;99.90;;;;;;5035446;28;20210;-82
2022/07/08 04:37:26;;;;;;;0.30;0.30;;;18.20;99.90;;;;;;5036371;28;20679;-82
2022/07/08 04:39:52;;;;;;;0.30;0.20;;;17.10;99.90;;;;;;5034261;28;20186;-82
2022/07/08 04:42:18;;;;;;;0.20;0.20;;;16.30;99.90;;;;;;5042559;28;20184;-83
2022/07/08 04:44:43;;;;;;;0.10;0.10;;;15.50;99.90;;;;;;5035934;28;20296;-83
2022/07/08 04:47:09;;;;;;;0.20;0.20;;;15.20;99.90;;;;;;5035726;28;20206;-83
2022/07/08 04:49:35;;;;;;;0.10;0.10;;;14.80;99.90;;;;;;5034575;28;20278;-83
2022/07/08 04:52:00;;;;;;;0.10;0.10;;;14.80;99.90;;;;;;5034842;28;20201;-82
2022/07/08 04:54:26;;;;;;;0.20;0.20;;;14.40;99.90;;;;;;5035986;28;20191;-83
2022/07/08 04:56:51;;;;;;;0.10;0.10;;;14.70;99.90;;;;;;5036057;28;20190;-83
2022/07/08 04:59:17;;;;;;;0.27;0.27;;;14.70;99.90;;;;;;5035255;28;20206;-82
2022/07/08 05:01:42;;;;;;;0.20;0.20;;;14.70;99.90;;;;;;5038067;28;20209;-83
2022/07/08 05:04:08;;;;;;;0.10;0.10;;;14.70;99.90;;;;;;5035835;28;20192;-84
2022/07/08 05:06:33;;;;;;;0.17;0.17;;;14.70;99.90;;;;;;5037149;28;20235;-83
2022/07/08 05:08:59;;;;;;;0.10;0.10;;;15.00;99.90;;;;;;5035110;28;20227;-82
2022/07/08 05:11:24;;;;;;;0.10;0.10;;;15.30;99.90;;;;;;5036136;28;20211;-82
2022/07/08 05:13:50;;;;;;;0.37;0.30;;;15.50;99.90;;;;;;5032622;28;20182;-81
2022/07/08 05:16:16;;;;;;;0.10;0.10;;;15.40;99.90;;;;;;5040926;28;20190;-81
2022/07/08 05:18:41;;;;;;;0.10;0.10;;;15.50;99.90;;;;;;5033624;28;20206;-81
2022/07/08 05:21:07;;;;;;;0.10;0.10;;;15.40;99.90;;;;;;5034805;28;20238;-82
2022/07/08 05:23:33;;;;;;;0.10;0.10;;;15.30;99.90;;;;;;5035724;28;20207;-82
2022/07/08 05:25:58;;;;;;;0.57;0.57;;;15.20;99.90;;;;;;5035532;28;20193;-82
2022/07/08 05:28:24;;;;;;;0.30;0.30;;;15.30;99.90;;;;;;5035567;28;20197;-82
2022/07/08 05:30:50;;;;;;;0.20;0.20;;;15.60;99.90;;;;;;5033575;28;20209;-82
2022/07/08 05:33:15;;;;;;;0.30;0.30;;;15.60;99.90;;;;;;5037109;28;20192;-81
2022/07/08 05:35:41;;;;;;;0.77;0.77;;;15.50;99.90;;;;;;5038096;28;20193;-82
2022/07/08 05:38:06;;;;;;;0.13;0.10;;;15.50;99.90;;;;;;5037471;28;20213;-82
2022/07/08 05:40:32;;;;;;;0.23;0.23;;;15.60;99.90;;;;;;5036819;28;20232;-82
2022/07/08 05:42:58;;;;;;;0.10;0.10;;;15.80;99.90;;;;;;5037270;28;20201;-82
2022/07/08 05:45:23;;;;;;;0.10;0.10;;;16.30;99.90;;;;;;5036387;28;20198;-82
2022/07/08 05:47:49;;;;;;;0.30;0.30;;;16.30;99.90;;;;;;5038034;28;20182;-82
2022/07/08 05:50:14;;;;;;;0.10;0.10;;;16.50;99.90;;;;;;5038372;28;20299;-81
2022/07/08 05:52:40;;;;;;;0.10;0.10;;;16.80;99.90;;;;;;5036701;28;20194;-82
2022/07/08 05:55:06;;;;;;;0.30;0.13;;;17.00;99.90;;;;;;5038679;28;20232;-81
2022/07/08 05:57:31;;;;;;;0.10;0.10;;;17.00;99.90;;;;;;5037787;28;20223;-82
2022/07/08 05:59:57;;;;;;;0.20;0.20;;;17.30;99.90;;;;;;5036673;28;20714;-82
2022/07/08 06:02:22;;;;;;;0.30;0.30;;;16.90;99.90;;;;;;5034868;28;20184;-82
2022/07/08 06:04:48;;;;;;;3.83;0.20;;;16.80;99.90;;;;;;5032865;28;20220;-82
2022/07/08 06:07:14;;;;;;;0.10;0.10;;;16.80;99.90;;;;;;5037517;28;20273;-81
2022/07/08 06:09:39;;;;;;;1.80;0.40;;;16.70;99.90;;;;;;5038087;28;20255;-82
2022/07/08 06:12:05;;;;;;;0.10;0.10;;;16.90;99.90;;;;;;5036930;28;20276;-81
2022/07/08 06:14:31;;;;;;;2.40;0.40;;;16.70;99.90;;;;;;5035801;28;20190;-82
2022/07/08 06:16:56;;;;;;;0.60;0.50;;;17.30;99.90;;;;;;5039059;28;20531;-81
2022/07/08 06:19:25;;;;;;;0.10;0.10;;;17.10;99.90;;;;;;5039146;28;20212;-81
2022/07/08 06:21:51;;;;;;;1.33;0.60;;;17.40;99.90;;;;;;5038238;28;20240;-81
2022/07/08 06:24:17;;;;;;;0.63;0.63;;;17.00;99.90;;;;;;5039203;28;20217;-82
2022/07/08 06:26:43;;;;;;;0.17;0.17;;;17.30;99.90;;;;;;5038583;28;20189;-82
2022/07/08 06:29:09;;;;;;;0.10;0.10;;;17.30;99.90;;;;;;5038698;28;20253;-82
2022/07/08 06:31:38;;;;;;;0.10;0.10;;;17.30;99.90;;;;;;5034418;28;20229;-81
2022/07/08 06:34:04;;;;;;;0.17;0.17;;;17.70;99.90;;;;;;5035879;28;20182;-82
2022/07/08 06:36:29;;;;;;;0.40;0.40;;;17.70;99.90;;;;;;5036691;28;20305;-82
2022/07/08 06:38:55;;;;;;;0.23;0.23;;;17.60;99.90;;;;;;5037064;28;20304;-83
2022/07/08 06:41:21;;;;;;;0.17;0.17;;;18.00;99.90;;;;;;5038740;28;20370;-82
2022/07/08 06:43:47;;;;;;;1.30;0.50;;;18.10;99.90;;;;;;5038451;28;20190;-81
2022/07/08 06:46:13;;;;;;;0.10;0.10;;;17.70;99.90;;;;;;5039362;28;20182;-82
2022/07/08 06:48:38;;;;;;;0.10;0.10;;;17.00;99.90;;;;;;5059326;28;20191;-82
2022/07/08 06:51:04;;;;;;;0.37;0.37;;;17.00;99.90;;;;;;5035023;28;20733;-82
2022/07/08 06:54:34;;;;;;;0.23;0.23;;;16.90;99.90;;;;;;5037809;28;20264;-81
2022/07/08 06:56:15;;;;;;;0.20;0.20;;;17.10;99.90;;;;;;5038176;28;20224;-82
2022/07/08 06:58:41;;;;;;;0.30;0.30;;;17.50;99.90;;;;;;5034253;28;20244;-82
2022/07/08 07:01:06;;;;;;;2.83;0.27;;;17.50;99.90;;;;;;5040413;28;20684;-81
2022/07/08 07:03:32;;;;;;;1.60;1.10;;;17.90;99.90;;;;;;5038931;28;20730;-83
2022/07/08 07:05:57;;;;;;;0.30;0.30;;;17.70;99.90;;;;;;5035527;28;20186;-82
2022/07/08 07:08:23;;;;;;;0.30;0.30;;;17.60;99.90;;;;;;5037712;28;21821;-82
2022/07/08 07:10:48;;;;;;;0.30;0.30;;;17.80;99.90;;;;;;5038823;28;20622;-83
2022/07/08 07:13:14;;;;;;;0.30;0.30;;;17.50;99.90;;;;;;5035165;28;20178;-82
2022/07/08 07:15:39;;;;;;;0.93;0.20;;;17.10;99.90;;;;;;5038099;28;20194;-82
2022/07/08 07:18:05;;;;;;;0.30;0.30;;;17.30;99.90;;;;;;5038088;28;20252;-82
2022/07/08 07:20:31;;;;;;;0.33;0.30;;;17.50;99.90;;;;;;5037920;28;20233;-83
2022/07/08 07:22:56;;;;;;;0.40;0.33;;;17.90;99.90;;;;;;5042568;28;20193;-83
2022/07/08 07:25:22;;;;;;;0.27;0.27;;;17.10;99.90;;;;;;5036125;28;20178;-82
2022/07/08 07:27:47;;;;;;;0.20;0.20;;;17.10;99.90;;;;;;5038658;28;20259;-83
2022/07/08 07:30:13;;;;;;;0.20;0.20;;;17.10;99.90;;;;;;5039768;28;20626;-82
2022/07/08 07:32:39;;;;;;;0.20;0.20;;;17.30;99.90;;;;;;5040858;28;20745;-82
2022/07/08 07:35:04;;;;;;;0.30;0.30;;;17.70;99.90;;;;;;5038816;28;20750;-82
2022/07/08 07:37:37;;;;;;;0.30;0.30;;;17.70;99.90;;;;;;5040920;28;20229;-82
2022/07/08 07:40:05;;;;;;;0.23;0.23;;;18.40;99.90;;;;;;5039063;28;20193;-82
2022/07/08 07:42:30;;;;;;;0.30;0.30;;;19.00;99.90;;;;;;5037505;28;20190;-83
2022/07/08 07:44:56;;;;;;;0.10;0.10;;;19.20;99.90;;;;;;5036635;28;20624;-83
2022/07/08 07:47:21;;;;;;;0.23;0.23;;;19.20;99.90;;;;;;5043231;28;20216;-82
2022/07/08 07:49:47;;;;;;;0.10;0.10;;;18.20;99.90;;;;;;5037623;28;20191;-82
2022/07/08 07:52:12;;;;;;;0.30;0.30;;;18.10;99.90;;;;;;5037256;28;20214;-83
2022/07/08 07:54:38;;;;;;;0.20;0.20;;;18.40;99.90;;;;;;5036091;28;20190;-83
2022/07/08 07:57:04;;;;;;;0.10;0.10;;;18.80;99.90;;;;;;5037308;28;20233;-83
2022/07/08 07:59:29;;;;;;;0.53;0.20;;;18.60;99.90;;;;;;5035896;28;20283;-83
2022/07/08 08:01:55;;;;;;;1.03;0.27;;;19.20;99.90;;;;;;5037758;28;20215;-83
2022/07/08 08:04:20;;;;;;;0.20;0.20;;;19.10;99.90;;;;;;5039102;28;20178;-83
2022/07/08 08:06:46;;;;;;;0.20;0.20;;;19.50;99.90;;;;;;5037653;28;20240;-83
2022/07/08 08:09:11;;;;;;;0.30;0.30;;;20.10;99.90;;;;;;5036495;28;20272;-83
2022/07/08 08:11:37;;;;;;;0.20;0.20;;;20.30;99.90;;;;;;5036506;28;20203;-83
2022/07/08 08:14:03;;;;;;;1.07;0.43;;;20.40;99.90;;;;;;5037240;28;20203;-83
2022/07/08 08:16:28;;;;;;;0.20;0.20;;;20.20;99.90;;;;;;5037454;28;20202;-83
2022/07/08 08:18:54;;;;;;;0.20;0.20;;;20.20;99.90;;;;;;5035160;28;20203;-83
2022/07/08 08:21:19;;;;;;;0.63;0.63;;;20.20;99.90;;;;;;5037714;28;20549;-83
2022/07/08 08:23:45;;;;;;;0.20;0.20;;;20.10;99.90;;;;;;5037177;28;20213;-83
2022/07/08 08:26:10;;;;;;;0.33;0.33;;;19.80;99.90;;;;;;5036104;28;20603;-83
2022/07/08 08:28:36;;;;;;;0.10;0.10;;;18.90;99.90;;;;;;5036033;28;20183;-83
2022/07/08 08:31:01;;;;;;;0.20;0.20;;;19.20;99.90;;;;;;5037283;28;20206;-83
2022/07/08 08:33:27;;;;;;;0.20;0.20;;;19.30;99.90;;;;;;5036799;28;20177;-83
2022/07/08 08:35:52;;;;;;;0.30;0.30;;;19.80;99.90;;;;;;5037958;28;20185;-83
2022/07/08 08:38:18;;;;;;;0.67;0.20;;;20.10;99.90;;;;;;5034832;28;20218;-83
2022/07/08 08:40:46;;;;;;;0.20;0.20;;;20.30;99.90;;;;;;5035042;28;20198;-84
2022/07/08 08:43:12;;;;;;;0.63;0.53;;;20.20;99.90;;;;;;5036637;28;20644;-83
2022/07/08 08:45:38;;;;;;;0.43;0.43;;;19.20;99.90;;;;;;5036282;28;20199;-83
2022/07/08 08:48:07;;;;;;;0.30;0.30;;;19.30;99.90;;;;;;5035015;28;20214;-83
2022/07/08 08:50:53;;;;;;;0.20;0.20;;;20.20;99.90;;;;;;5037584;28;20201;-83
2022/07/08 08:53:26;;;;;;;0.40;0.40;;;19.80;99.90;;;;;;5033986;28;20194;-83
2022/07/08 08:55:53;;;;;;;0.30;0.30;;;19.80;99.90;;;;;;5035979;28;20182;-83
2022/07/08 08:58:19;;;;;;;2.70;2.50;;;19.00;99.90;;;;;;5041781;28;20219;-83
2022/07/08 09:00:45;;;;;;;0.20;0.20;;;18.70;99.90;;;;;;5040639;28;20264;-83
2022/07/08 09:03:11;;;;;;;0.30;0.30;;;18.90;99.90;;;;;;5035543;28;20202;-83
2022/07/08 09:05:36;;;;;;;2.77;0.37;;;18.80;99.90;;;;;;5036370;28;20285;-83
2022/07/08 09:08:02;;;;;;;0.47;0.47;;;19.00;99.90;;;;;;5043013;28;20216;-83
2022/07/08 09:10:27;;;;;;;0.20;0.20;;;18.70;99.90;;;;;;5041785;28;20205;-82
2022/07/08 09:13:03;;;;;;;0.40;0.40;;;19.20;99.90;;;;;;5035415;28;20193;-83
2022/07/08 09:15:34;;;;;;;1.43;0.47;;;19.60;99.90;;;;;;5037129;28;20186;-82
2022/07/08 09:18:01;;;;;;;0.33;0.33;;;19.90;99.90;;;;;;5038229;28;20214;-83
2022/07/08 09:20:36;;;;;;;0.13;0.13;;;19.70;99.90;;;;;;5035039;28;20252;-83
2022/07/08 09:23:01;;;;;;;0.40;0.40;;;19.80;99.90;;;;;;5037308;28;20728;-83
2022/07/08 09:25:31;;;;;;;0.20;0.20;;;19.40;99.90;;;;;;5054154;28;20172;-84
2022/07/08 09:27:58;;;;;;;0.27;0.27;;;18.90;99.90;;;;;;5046497;28;20242;-83
2022/07/08 09:30:28;;;;;;;0.27;0.27;;;19.40;99.90;;;;;;5053303;28;20211;-84
2022/07/08 09:33:01;;;;;;;0.27;0.27;;;20.10;99.90;;;;;;5056465;28;20203;-84
2022/07/08 09:35:35;;;;;;;0.40;0.40;;;20.20;99.90;;;;;;5051882;28;20198;-83
2022/07/08 09:38:02;;;;;;;0.83;0.63;;;19.60;99.90;;;;;;5051817;28;20269;-83
2022/07/08 09:40:28;;;;;;;0.20;0.20;;;20.10;99.90;;;;;;5044162;28;20203;-82
2022/07/08 09:42:53;;;;;;;0.30;0.30;;;20.50;99.90;;;;;;5040308;28;20261;-83
2022/07/08 09:45:19;;;;;;;0.20;0.20;;;20.80;99.90;;;;;;5040782;28;20198;-83
2022/07/08 09:47:45;;;;;;;0.40;0.40;;;20.70;99.90;;;;;;5038812;28;20664;-82
2022/07/08 09:50:14;;;;;;;0.30;0.30;;;20.90;99.90;;;;;;5043190;28;20570;-82
2022/07/08 09:52:40;;;;;;;0.20;0.20;;;20.60;99.90;;;;;;5045151;28;20204;-82
2022/07/08 09:55:06;;;;;;;0.50;0.50;;;20.90;99.90;;;;;;5043843;28;20224;-83
2022/07/08 09:57:31;;;;;;;0.30;0.30;;;20.90;99.90;;;;;;5043273;28;20906;-83
2022/07/08 09:59:57;;;;;;;0.47;0.40;;;21.10;99.90;;;;;;5041529;28;20257;-83
2022/07/08 10:02:23;;;;;;;0.20;0.20;;;21.40;99.90;;;;;;5044004;28;20198;-83
2022/07/08 10:04:50;;;;;;;0.20;0.20;;;20.80;99.90;;;;;;5041561;28;20197;-82
2022/07/08 10:07:16;;;;;;;0.20;0.20;;;20.90;99.90;;;;;;5042757;28;20663;-83
2022/07/08 10:09:42;;;;;;;0.30;0.30;;;20.90;99.90;;;;;;5043364;28;20192;-82
2022/07/08 10:12:11;;;;;;;0.40;0.23;;;20.90;99.90;;;;;;5041609;28;20221;-82
2022/07/08 10:14:36;;;;;;;0.20;0.20;;;21.00;99.90;;;;;;5040520;28;20194;-82
2022/07/08 10:17:07;;;;;;;0.60;0.60;;;21.30;99.90;;;;;;5043365;28;20204;-82
2022/07/08 10:19:38;;;;;;;0.43;0.43;;;21.00;99.90;;;;;;5043693;28;20217;-83
2022/07/08 10:22:06;;;;;;;0.73;0.30;;;21.10;99.90;;;;;;5042523;28;20293;-83
2022/07/08 10:24:36;;;;;;;0.20;0.20;;;21.50;99.90;;;;;;5041742;28;20193;-83
2022/07/08 10:27:02;;;;;;;0.10;0.10;;;21.80;99.90;;;;;;5041917;28;20281;-82
2022/07/08 10:29:29;;;;;;;0.37;0.37;;;22.30;99.90;;;;;;5040596;28;20275;-82
2022/07/08 10:31:57;;;;;;;0.20;0.20;;;22.20;99.90;;;;;;5042047;28;20236;-83
2022/07/08 10:34:34;;;;;;;0.30;0.30;;;22.30;99.90;;;;;;5040600;28;20186;-81
2022/07/08 10:37:02;;;;;;;0.20;0.20;;;22.40;99.90;;;;;;5048510;28;20659;-83
2022/07/08 10:39:30;;;;;;;1.57;0.27;;;22.50;99.90;;;;;;5040208;28;20206;-83
2022/07/08 10:42:09;;;;;;;0.30;0.30;;;22.80;99.90;;;;;;5046523;28;20202;-83
2022/07/08 10:44:52;;;;;;;0.40;0.40;;;22.80;99.90;;;;;;5040070;28;20194;-82
2022/07/08 10:47:31;;;;;;;0.40;0.40;;;22.70;99.90;;;;;;5040273;28;20186;-82
2022/07/08 10:50:05;;;;;;;0.37;0.37;;;22.70;99.90;;;;;;5042364;28;20849;-82
2022/07/08 10:52:32;;;;;;;0.80;0.40;;;22.30;99.90;;;;;;5039928;28;20196;-82
2022/07/08 10:55:08;;;;;;;0.80;0.80;;;22.00;99.90;;;;;;5040917;28;20226;-82
2022/07/08 10:57:35;;;;;;;1.03;0.30;;;22.40;99.90;;;;;;5060999;28;20190;-82
2022/07/08 11:00:19;;;;;;;0.97;0.93;;;22.60;99.90;;;;;;5040156;28;20186;-83
2022/07/08 11:02:48;;;;;;;0.57;0.47;;;22.80;99.90;;;;;;5039919;28;20188;-82
2022/07/08 11:05:39;;;;;;;0.20;0.20;;;22.30;99.90;;;;;;5061410;28;20186;-83
2022/07/08 11:08:20;;;;;;;0.87;0.60;;;22.50;99.90;;;;;;5038467;28;20186;-83
2022/07/08 11:10:51;;;;;;;0.43;0.43;;;22.70;99.90;;;;;;5060039;28;20921;-82
2022/07/08 11:13:19;;;;;;;0.30;0.30;;;22.80;99.90;;;;;;5037182;28;20190;-82
2022/07/08 11:15:44;;;;;;;0.20;0.20;;;22.80;99.90;;;;;;5044384;28;20603;-82
2022/07/08 11:18:10;;;;;;;0.40;0.40;;;22.90;99.90;;;;;;5036902;28;20210;-82
2022/07/08 11:20:36;;;;;;;0.50;0.50;;;23.20;99.90;;;;;;5038686;28;20222;-82
2022/07/08 11:23:05;;;;;;;0.37;0.37;;;23.00;99.90;;;;;;5037583;28;20190;-82
2022/07/08 11:25:31;;;;;;;0.23;0.23;;;23.00;99.90;;;;;;5039537;28;20211;-82
2022/07/08 11:27:57;;;;;;;0.30;0.30;;;23.30;99.90;;;;;;5040145;28;20221;-82
2022/07/08 11:30:23;;;;;;;0.30;0.30;;;22.80;99.90;;;;;;5038887;28;20206;-82
2022/07/08 11:32:50;;;;;;;0.37;0.30;;;23.20;99.90;;;;;;5037737;28;20715;-82
2022/07/08 11:35:21;;;;;;;0.20;0.20;;;22.90;99.90;;;;;;5036453;28;20203;-83
2022/07/08 11:37:46;;;;;;;0.27;0.27;;;22.90;99.90;;;;;;5038473;28;20454;-82
2022/07/08 11:40:13;;;;;;;0.40;0.40;;;23.10;99.90;;;;;;5034811;28;20762;-83
2022/07/08 11:42:40;;;;;;;1.33;0.37;;;22.80;99.90;;;;;;5035639;28;20189;-82
2022/07/08 11:45:08;;;;;;;0.37;0.37;;;23.10;99.90;;;;;;5036639;28;20293;-82
2022/07/08 11:47:34;;;;;;;0.20;0.20;;;22.90;99.90;;;;;;5043116;28;20253;-81
2022/07/08 11:50:00;;;;;;;0.50;0.50;;;23.40;99.90;;;;;;5034674;28;20281;-82
2022/07/08 11:52:27;;;;;;;0.30;0.30;;;22.60;99.90;;;;;;5037501;28;20191;-82
2022/07/08 11:54:53;;;;;;;0.27;0.27;;;23.00;99.90;;;;;;5040691;28;20556;-81
2022/07/08 11:57:22;;;;;;;0.70;0.70;;;23.20;99.90;;;;;;5038195;28;20232;-82
2022/07/08 11:59:49;;;;;;;0.30;0.30;;;22.90;99.90;;;;;;5037399;28;20201;-83
2022/07/08 12:02:19;;;;;;;0.30;0.30;;;22.60;99.90;;;;;;5043604;28;20202;-82
2022/07/08 12:04:46;;;;;;;0.50;0.50;;;22.50;99.90;;;;;;5037156;28;20215;-82
2022/07/08 12:07:24;;;;;;;0.30;0.30;;;23.30;99.90;;;;;;5036513;28;20196;-82
2022/07/08 12:09:57;;;;;;;0.30;0.30;;;23.60;99.90;;;;;;5039596;28;20193;-81
2022/07/08 12:12:31;;;;;;;0.60;0.60;;;23.90;99.90;;;;;;5037342;28;20197;-82
2022/07/08 12:14:57;;;;;;;0.13;0.13;;;24.30;99.90;;;;;;5058106;28;20190;-82
2022/07/08 12:17:24;;;;;;;0.47;0.47;;;24.10;99.90;;;;;;5040091;28;20204;-82
2022/07/08 12:19:52;;;;;;;1.17;0.40;;;24.10;99.90;;;;;;5035447;28;20185;-81
2022/07/08 12:22:42;;;;;;;0.30;0.30;;;23.90;99.90;;;;;;5037044;28;20181;-81
2022/07/08 12:25:08;;;;;;;0.63;0.63;;;23.90;99.90;;;;;;5037554;28;20204;-82
2022/07/08 12:27:34;;;;;;;0.30;0.30;;;23.00;99.90;;;;;;5037751;28;20217;-82
2022/07/08 12:30:04;;;;;;;0.37;0.30;;;23.20;99.90;;;;;;5034544;28;20236;-81
2022/07/08 12:32:40;;;;;;;1.00;0.93;;;23.60;99.90;;;;;;5037911;28;20313;-81
2022/07/08 12:35:07;;;;;;;0.37;0.37;;;23.50;99.90;;;;;;5036580;28;20178;-82
2022/07/08 12:37:33;;;;;;;0.20;0.20;;;24.10;99.90;;;;;;5039128;28;20174;-82
2022/07/08 12:40:12;;;;;;;0.97;0.53;;;24.40;99.90;;;;;;5036313;28;20197;-82
2022/07/08 12:42:38;;;;;;;1.13;1.13;;;24.00;99.90;;;;;;5040020;28;20188;-82
2022/07/08 12:45:14;;;;;;;0.40;0.40;;;23.30;99.90;;;;;;5035139;28;21039;-82
2022/07/08 12:47:39;;;;;;;0.30;0.30;;;23.30;99.90;;;;;;5039423;28;20194;-81
2022/07/08 12:50:06;;;;;;;0.40;0.40;;;23.70;99.90;;;;;;5038528;28;20216;-82